Time;durP1;ratioP1;P1;durP2;ratioP2;P2;SDS_P1;SDS_P2;PMS_P1;PMS_P2;Temp;Humidity;BMP_temperature;BMP_pressure;BME280_temperature;BME280_humidity;BME280_pressure;Samples;Min_cycle;Max_cycle;Signal;HPM_P1;HPM_P2
2022/11/14 00:01:05;;;;;;;;;;;;;;;;;;6246492;23;20385;-85
2022/11/14 00:03:31;;;;;;;;;;;;;;;;;;6220956;23;20248;-85
2022/11/14 00:05:57;;;;;;;;;;;;;;;;;;6221138;23;19968;-85
2022/11/14 00:08:24;;;;;;;;;;;;;;;;;;6195995;23;20038;-85
2022/11/14 00:10:50;;;;;;;;;;;;;;;;;;6246446;23;19911;-85
2022/11/14 00:13:15;;;;;;;;;;;;;;;;;;6196072;23;19912;-84
2022/11/14 00:15:43;;;;;;;;;;;;;;;;;;6221240;23;20380;-85
2022/11/14 00:18:09;;;;;;;;;;;;;;;;;;6246242;22;19974;-85
2022/11/14 00:20:35;;;;;;;;;;;;;;;;;;6220790;23;19911;-84
2022/11/14 00:23:00;;;;;;;;;;;;;;;;;;6219531;23;19911;-85
2022/11/14 00:25:26;;;;;;;;;;;;;;;;;;6219635;23;19919;-86
2022/11/14 00:27:52;;;;;;;;;;;;;;;;;;6219491;23;19953;-85
2022/11/14 00:30:18;;;;;;;;;;;;;;;;;;6219876;23;19954;-86
2022/11/14 00:32:44;;;;;;;;;;;;;;;;;;6219289;23;19951;-85
2022/11/14 00:35:10;;;;;;;;;;;;;;;;;;6219603;23;19982;-85
2022/11/14 00:37:36;;;;;;;;;;;;;;;;;;6219376;23;19974;-84
2022/11/14 00:40:02;;;;;;;;;;;;;;;;;;6204012;23;19922;-85
2022/11/14 00:42:28;;;;;;;;;;;;;;;;;;6219419;23;20001;-85
2022/11/14 00:44:54;;;;;;;;;;;;;;;;;;6219353;23;19978;-85
2022/11/14 00:47:19;;;;;;;;;;;;;;;;;;6246361;22;19911;-85
2022/11/14 00:49:45;;;;;;;;;;;;;;;;;;6219392;23;19911;-85
2022/11/14 00:52:11;;;;;;;;;;;;;;;;;;6219461;23;20320;-85
2022/11/14 00:54:37;;;;;;;;;;;;;;;;;;6194261;23;19912;-84
2022/11/14 00:57:03;;;;;;;;;;;;;;;;;;6219405;23;19934;-85
2022/11/14 00:59:29;;;;;;;;;;;;;;;;;;6219485;23;19915;-85
2022/11/14 01:01:55;;;;;;;;;;;;;;;;;;6246481;22;19916;-86
2022/11/14 01:04:21;;;;;;;;;;;;;;;;;;6249854;22;19964;-85
2022/11/14 01:06:47;;;;;;;;;;;;;;;;;;6276564;22;19911;-86
2022/11/14 01:09:12;;;;;;;;;;;;;;;;;;6249632;22;20260;-85
2022/11/14 01:11:38;;;;;;;;;;;;;;;;;;6224534;22;19922;-85
2022/11/14 01:14:04;;;;;;;;;;;;;;;;;;6249508;22;19911;-85
2022/11/14 01:16:30;;;;;;;;;;;;;;;;;;6249307;22;20215;-85
2022/11/14 01:18:56;;;;;;;;;;;;;;;;;;6249391;22;19919;-86
2022/11/14 01:21:22;;;;;;;;;;;;;;;;;;6224001;22;19970;-85
2022/11/14 01:23:48;;;;;;;;;;;;;;;;;;6223861;22;19915;-85
2022/11/14 01:26:14;;;;;;;;;;;;;;;;;;6249381;22;19922;-86
2022/11/14 01:28:40;;;;;;;;;;;;;;;;;;6249184;22;20186;-85
2022/11/14 01:31:05;;;;;;;;;;;;;;;;;;6249631;22;19963;-85
2022/11/14 01:33:31;;;;;;;;;;;;;;;;;;6249022;22;19943;-85
2022/11/14 01:35:57;;;;;;;;;;;;;;;;;;6249382;22;19986;-85
2022/11/14 01:38:23;;;;;;;;;;;;;;;;;;6223702;22;19950;-85
2022/11/14 01:40:49;;;;;;;;;;;;;;;;;;6223719;22;19990;-84
2022/11/14 01:43:15;;;;;;;;;;;;;;;;;;6249405;22;19964;-85
2022/11/14 01:45:41;;;;;;;;;;;;;;;;;;6249383;22;19911;-85
2022/11/14 01:48:07;;;;;;;;;;;;;;;;;;6223724;22;19918;-85
2022/11/14 01:50:33;;;;;;;;;;;;;;;;;;6249381;22;20208;-85
2022/11/14 01:52:58;;;;;;;;;;;;;;;;;;6249008;22;19923;-85
2022/11/14 01:55:26;;;;;;;;;;;;;;;;;;6276165;22;19972;-84
2022/11/14 01:57:52;;;;;;;;;;;;;;;;;;6223611;22;19915;-84
2022/11/14 02:00:18;;;;;;;;;;;;;;;;;;6249054;22;20007;-85
2022/11/14 02:02:44;;;;;;;;;;;;;;;;;;6248978;22;20399;-85
2022/11/14 02:05:09;;;;;;;;;;;;;;;;;;6249221;22;19939;-84
2022/11/14 02:07:35;;;;;;;;;;;;;;;;;;6275956;22;19915;-85
2022/11/14 02:10:01;;;;;;;;;;;;;;;;;;6276335;22;19911;-85
2022/11/14 02:12:27;;;;;;;;;;;;;;;;;;6248692;22;19911;-84
2022/11/14 02:14:53;;;;;;;;;;;;;;;;;;6248827;22;19915;-85
2022/11/14 02:17:19;;;;;;;;;;;;;;;;;;6248671;22;19950;-85
2022/11/14 02:19:45;;;;;;;;;;;;;;;;;;6276048;22;19915;-85
2022/11/14 02:22:11;;;;;;;;;;;;;;;;;;6223538;22;19965;-84
2022/11/14 02:24:37;;;;;;;;;;;;;;;;;;6248748;22;20270;-84
2022/11/14 02:27:02;;;;;;;;;;;;;;;;;;6249046;22;20281;-85
2022/11/14 02:29:28;;;;;;;;;;;;;;;;;;6248713;22;19919;-84
2022/11/14 02:31:54;;;;;;;;;;;;;;;;;;6223353;22;19911;-85
2022/11/14 02:34:20;;;;;;;;;;;;;;;;;;6248691;22;19917;-84
2022/11/14 02:36:46;;;;;;;;;;;;;;;;;;6223043;22;19911;-85
2022/11/14 02:39:12;;;;;;;;;;;;;;;;;;6248677;22;20291;-85
2022/11/14 02:41:38;;;;;;;;;;;;;;;;;;6275793;22;19964;-84
2022/11/14 02:44:04;;;;;;;;;;;;;;;;;;6223076;22;19911;-86
2022/11/14 02:46:29;;;;;;;;;;;;;;;;;;6275804;22;19918;-84
2022/11/14 02:48:55;;;;;;;;;;;;;;;;;;6248353;22;19911;-84
2022/11/14 02:51:21;;;;;;;;;;;;;;;;;;6222496;22;20394;-86
2022/11/14 02:53:47;;;;;;;;;;;;;;;;;;6223081;22;19911;-85
2022/11/14 02:56:13;;;;;;;;;;;;;;;;;;6248329;22;19918;-84
2022/11/14 02:58:39;;;;;;;;;;;;;;;;;;6248047;22;19915;-85
2022/11/14 03:01:05;;;;;;;;;;;;;;;;;;6248450;22;20403;-84
2022/11/14 03:03:31;;;;;;;;;;;;;;;;;;6248220;22;19911;-85
2022/11/14 03:05:57;;;;;;;;;;;;;;;;;;6248550;22;19915;-86
2022/11/14 03:08:23;;;;;;;;;;;;;;;;;;6248353;22;19990;-85
2022/11/14 03:10:48;;;;;;;;;;;;;;;;;;6248008;22;20355;-85
2022/11/14 03:13:14;;;;;;;;;;;;;;;;;;6248262;22;19911;-85
2022/11/14 03:15:40;;;;;;;;;;;;;;;;;;6248245;22;20333;-84
2022/11/14 03:18:06;;;;;;;;;;;;;;;;;;6222599;22;19931;-85
2022/11/14 03:20:32;;;;;;;;;;;;;;;;;;6222701;22;19915;-85
2022/11/14 03:22:58;;;;;;;;;;;;;;;;;;6248304;22;19915;-86
2022/11/14 03:25:24;;;;;;;;;;;;;;;;;;6247915;22;19911;-84
2022/11/14 03:27:50;;;;;;;;;;;;;;;;;;6248044;22;20289;-84
2022/11/14 03:30:15;;;;;;;;;;;;;;;;;;6248282;22;19961;-85
2022/11/14 03:32:41;;;;;;;;;;;;;;;;;;6248088;22;20343;-85
2022/11/14 03:35:07;;;;;;;;;;;;;;;;;;6248195;22;19918;-84
2022/11/14 03:37:33;;;;;;;;;;;;;;;;;;6222654;22;19911;-85
2022/11/14 03:39:59;;;;;;;;;;;;;;;;;;6222788;22;19915;-84
2022/11/14 03:42:25;;;;;;;;;;;;;;;;;;6248291;22;19966;-85
2022/11/14 03:44:51;;;;;;;;;;;;;;;;;;6248049;22;19911;-85
2022/11/14 03:47:17;;;;;;;;;;;;;;;;;;6247913;22;19911;-86
2022/11/14 03:49:43;;;;;;;;;;;;;;;;;;6248152;22;19944;-84
2022/11/14 03:52:09;;;;;;;;;;;;;;;;;;6248184;22;19978;-84
2022/11/14 03:54:35;;;;;;;;;;;;;;;;;;6247877;22;20404;-86
2022/11/14 03:57:02;;;;;;;;;;;;;;;;;;6249882;22;19912;-85
2022/11/14 03:59:28;;;;;;;;;;;;;;;;;;6250111;22;19919;-85
2022/11/14 04:01:55;;;;;;;;;;;;;;;;;;6249778;22;19915;-86
2022/11/14 04:04:20;;;;;;;;;;;;;;;;;;6250047;22;19911;-85
2022/11/14 04:06:46;;;;;;;;;;;;;;;;;;6249665;22;19918;-84
2022/11/14 04:09:12;;;;;;;;;;;;;;;;;;6249719;22;19911;-85
2022/11/14 04:11:38;;;;;;;;;;;;;;;;;;6249791;22;19915;-85
2022/11/14 04:14:04;;;;;;;;;;;;;;;;;;6249930;22;20325;-84
2022/11/14 04:16:30;;;;;;;;;;;;;;;;;;6224533;22;19919;-85
2022/11/14 04:18:56;;;;;;;;;;;;;;;;;;6249506;22;20240;-84
2022/11/14 04:21:22;;;;;;;;;;;;;;;;;;6250069;22;19922;-85
2022/11/14 04:23:48;;;;;;;;;;;;;;;;;;6249950;22;19911;-86
2022/11/14 04:26:13;;;;;;;;;;;;;;;;;;6249636;22;19947;-85
2022/11/14 04:28:39;;;;;;;;;;;;;;;;;;6249828;22;19970;-84
2022/11/14 04:31:05;;;;;;;;;;;;;;;;;;6249634;22;19911;-86
2022/11/14 04:33:31;;;;;;;;;;;;;;;;;;6249882;22;19918;-85
2022/11/14 04:35:57;;;;;;;;;;;;;;;;;;6249605;22;19918;-85
2022/11/14 04:38:23;;;;;;;;;;;;;;;;;;6249302;22;19915;-85
2022/11/14 04:40:49;;;;;;;;;;;;;;;;;;6249719;22;20242;-85
2022/11/14 04:43:15;;;;;;;;;;;;;;;;;;6249699;22;19911;-85
2022/11/14 04:45:41;;;;;;;;;;;;;;;;;;6249722;22;20279;-85
2022/11/14 04:48:07;;;;;;;;;;;;;;;;;;6249684;22;19918;-85
2022/11/14 04:50:33;;;;;;;;;;;;;;;;;;6249779;22;19926;-85
2022/11/14 04:52:59;;;;;;;;;;;;;;;;;;6249561;22;19930;-85
2022/11/14 04:55:25;;;;;;;;;;;;;;;;;;6249492;22;19911;-86
2022/11/14 04:57:50;;;;;;;;;;;;;;;;;;6249241;22;19911;-85
2022/11/14 05:00:16;;;;;;;;;;;;;;;;;;6249384;22;19915;-85
2022/11/14 05:02:42;;;;;;;;;;;;;;;;;;6249594;22;20244;-85
2022/11/14 05:05:08;;;;;;;;;;;;;;;;;;6249345;22;19963;-85
2022/11/14 05:07:34;;;;;;;;;;;;;;;;;;6248840;22;20046;-85
2022/11/14 05:10:00;;;;;;;;;;;;;;;;;;6249243;22;19915;-85
2022/11/14 05:12:26;;;;;;;;;;;;;;;;;;6224314;22;19917;-84
2022/11/14 05:14:52;;;;;;;;;;;;;;;;;;6249506;22;20360;-85
2022/11/14 05:17:18;;;;;;;;;;;;;;;;;;6249235;22;19986;-85
2022/11/14 05:19:45;;;;;;;;;;;;;;;;;;6249273;22;19919;-86
2022/11/14 05:22:11;;;;;;;;;;;;;;;;;;6249504;22;19967;-84
2022/11/14 05:24:37;;;;;;;;;;;;;;;;;;6249418;22;20269;-85
2022/11/14 05:27:03;;;;;;;;;;;;;;;;;;6224001;22;20288;-85
2022/11/14 05:29:28;;;;;;;;;;;;;;;;;;6249354;22;19914;-85
2022/11/14 05:31:55;;;;;;;;;;;;;;;;;;6249252;22;19911;-85
2022/11/14 05:34:20;;;;;;;;;;;;;;;;;;6249581;22;19960;-85
2022/11/14 05:36:46;;;;;;;;;;;;;;;;;;6248961;22;19990;-85
2022/11/14 05:39:12;;;;;;;;;;;;;;;;;;6249435;22;19915;-85
2022/11/14 05:41:38;;;;;;;;;;;;;;;;;;6224036;22;19937;-84
2022/11/14 05:44:04;;;;;;;;;;;;;;;;;;6249097;22;19911;-85
2022/11/14 05:46:30;;;;;;;;;;;;;;;;;;6249038;22;19911;-85
2022/11/14 05:48:56;;;;;;;;;;;;;;;;;;6276734;22;19911;-85
2022/11/14 05:51:22;;;;;;;;;;;;;;;;;;6249960;22;19915;-86
2022/11/14 05:53:47;;;;;;;;;;;;;;;;;;6250052;22;19918;-85
2022/11/14 05:56:13;;;;;;;;;;;;;;;;;;6250365;22;19919;-85
2022/11/14 05:58:39;;;;;;;;;;;;;;;;;;6251082;22;19915;-85
2022/11/14 06:01:05;;;;;;;;;;;;;;;;;;6251593;22;19915;-86
2022/11/14 06:03:31;;;;;;;;;;;;;;;;;;6253688;22;19955;-86
2022/11/14 06:05:57;;;;;;;;;;;;;;;;;;6253042;22;20329;-86
2022/11/14 06:08:23;;;;;;;;;;;;;;;;;;6225398;22;19918;-86
2022/11/14 06:10:49;;;;;;;;;;;;;;;;;;6250580;22;19918;-85
2022/11/14 06:13:15;;;;;;;;;;;;;;;;;;6225636;22;20275;-85
2022/11/14 06:15:41;;;;;;;;;;;;;;;;;;6250670;22;19911;-85
2022/11/14 06:18:07;;;;;;;;;;;;;;;;;;6250522;22;19911;-85
2022/11/14 06:20:32;;;;;;;;;;;;;;;;;;6249715;22;19918;-84
2022/11/14 06:22:58;;;;;;;;;;;;;;;;;;6250136;22;19918;-85
2022/11/14 06:25:24;;;;;;;;;;;;;;;;;;6276513;22;19911;-84
2022/11/14 06:27:50;;;;;;;;;;;;;;;;;;6225196;22;19918;-84
2022/11/14 06:30:16;;;;;;;;;;;;;;;;;;6250825;22;19911;-84
2022/11/14 06:32:42;;;;;;;;;;;;;;;;;;6250138;22;19918;-85
2022/11/14 06:35:08;;;;;;;;;;;;;;;;;;6226755;22;19925;-85
2022/11/14 06:37:34;;;;;;;;;;;;;;;;;;6250970;22;19911;-84
2022/11/14 06:40:00;;;;;;;;;;;;;;;;;;6251088;22;19915;-85
2022/11/14 06:42:26;;;;;;;;;;;;;;;;;;6250595;22;19915;-83
2022/11/14 06:44:52;;;;;;;;;;;;;;;;;;6250279;22;19919;-85
2022/11/14 06:47:17;;;;;;;;;;;;;;;;;;6225481;22;19910;-84
2022/11/14 06:49:43;;;;;;;;;;;;;;;;;;6249069;22;19981;-85
2022/11/14 06:52:09;;;;;;;;;;;;;;;;;;6248914;22;20244;-85
2022/11/14 06:54:36;;;;;;;;;;;;;;;;;;6248644;22;19911;-84
2022/11/14 06:57:02;;;;;;;;;;;;;;;;;;6223260;22;19915;-84
2022/11/14 06:59:28;;;;;;;;;;;;;;;;;;6248586;22;19958;-85
2022/11/14 07:01:54;;;;;;;;;;;;;;;;;;6248169;22;19994;-84
2022/11/14 07:04:20;;;;;;;;;;;;;;;;;;6248592;22;19911;-84
2022/11/14 07:06:46;;;;;;;;;;;;;;;;;;6248595;22;19980;-85
2022/11/14 07:09:11;;;;;;;;;;;;;;;;;;6223534;22;19911;-84
2022/11/14 07:11:37;;;;;;;;;;;;;;;;;;6248685;22;19915;-84
2022/11/14 07:14:05;;;;;;;;;;;;;;;;;;6223316;22;20248;-85
2022/11/14 07:16:34;;;;;;;;;;;;;;;;;;6248748;22;20225;-85
2022/11/14 07:18:59;;;;;;;;;;;;;;;;;;6248524;22;19915;-84
2022/11/14 07:21:25;;;;;;;;;;;;;;;;;;6248554;22;20302;-85
2022/11/14 07:23:51;;;;;;;;;;;;;;;;;;6248435;22;19986;-84
2022/11/14 07:26:17;;;;;;;;;;;;;;;;;;6248563;22;19911;-84
2022/11/14 07:28:43;;;;;;;;;;;;;;;;;;6248761;22;19911;-84
2022/11/14 07:31:09;;;;;;;;;;;;;;;;;;6277316;22;19917;-83
2022/11/14 07:33:35;;;;;;;;;;;;;;;;;;6250542;22;19915;-84
2022/11/14 07:36:01;;;;;;;;;;;;;;;;;;6277487;22;19911;-84
2022/11/14 07:38:27;;;;;;;;;;;;;;;;;;6250904;22;19922;-83
2022/11/14 07:40:53;;;;;;;;;;;;;;;;;;6250665;22;19984;-84
2022/11/14 07:43:19;;;;;;;;;;;;;;;;;;6250666;22;20241;-84
2022/11/14 07:45:45;;;;;;;;;;;;;;;;;;6250802;22;20222;-84
2022/11/14 07:48:11;;;;;;;;;;;;;;;;;;6225121;22;19940;-84
2022/11/14 07:50:37;;;;;;;;;;;;;;;;;;6250496;22;19911;-83
2022/11/14 07:53:03;;;;;;;;;;;;;;;;;;6250493;22;20355;-84
2022/11/14 07:55:28;;;;;;;;;;;;;;;;;;6250476;22;19919;-86
2022/11/14 07:57:54;;;;;;;;;;;;;;;;;;6250277;22;19981;-84
2022/11/14 08:00:20;;;;;;;;;;;;;;;;;;6249992;22;19916;-84
2022/11/14 08:02:46;;;;;;;;;;;;;;;;;;6224962;22;19911;-85
2022/11/14 08:05:12;;;;;;;;;;;;;;;;;;6250502;22;19933;-86
2022/11/14 08:07:38;;;;;;;;;;;;;;;;;;6249971;22;19915;-85
2022/11/14 08:10:04;;;;;;;;;;;;;;;;;;6250295;22;19917;-85
2022/11/14 08:12:30;;;;;;;;;;;;;;;;;;6225076;22;20358;-85
2022/11/14 08:14:56;;;;;;;;;;;;;;;;;;6224824;22;19911;-85
2022/11/14 08:17:21;;;;;;;;;;;;;;;;;;6224568;22;19911;-84
2022/11/14 08:19:47;;;;;;;;;;;;;;;;;;6247728;22;19922;-84
2022/11/14 08:22:13;;;;;;;;;;;;;;;;;;6250279;22;19915;-84
2022/11/14 08:24:39;;;;;;;;;;;;;;;;;;6249739;22;19915;-85
2022/11/14 08:27:05;;;;;;;;;;;;;;;;;;6250014;22;19911;-85
2022/11/14 08:29:31;;;;;;;;;;;;;;;;;;6249841;22;19946;-85
2022/11/14 08:31:57;;;;;;;;;;;;;;;;;;6224525;22;20365;-85
2022/11/14 08:34:23;;;;;;;;;;;;;;;;;;6249950;22;20033;-84
2022/11/14 08:36:49;;;;;;;;;;;;;;;;;;6250006;22;19915;-84
2022/11/14 08:39:15;;;;;;;;;;;;;;;;;;6224763;22;19915;-84
2022/11/14 08:41:40;;;;;;;;;;;;;;;;;;6249452;22;19917;-85
2022/11/14 08:44:06;;;;;;;;;;;;;;;;;;6249485;22;19911;-85
2022/11/14 08:46:32;;;;;;;;;;;;;;;;;;6249551;22;19911;-85
2022/11/14 08:48:58;;;;;;;;;;;;;;;;;;6224329;22;19915;-84
2022/11/14 08:51:24;;;;;;;;;;;;;;;;;;6249609;22;19911;-85
2022/11/14 08:53:51;;;;;;;;;;;;;;;;;;6249553;22;20387;-82
2022/11/14 08:56:17;;;;;;;;;;;;;;;;;;6249807;22;19918;-82
2022/11/14 08:58:43;;;;;;;;;;;;;;;;;;6249835;22;19915;-83
2022/11/14 09:01:08;;;;;;;;;;;;;;;;;;6276357;22;19923;-83
2022/11/14 09:03:34;;;;;;;;;;;;;;;;;;6249750;22;19918;-83
2022/11/14 09:06:01;;;;;;;;;;;;;;;;;;6249496;22;19911;-84
2022/11/14 09:08:27;;;;;;;;;;;;;;;;;;6249684;22;20256;-84
2022/11/14 09:10:53;;;;;;;;;;;;;;;;;;6249562;22;19911;-84
2022/11/14 09:13:19;;;;;;;;;;;;;;;;;;6276835;22;19911;-82
2022/11/14 09:15:45;;;;;;;;;;;;;;;;;;6224097;22;19911;-82
2022/11/14 09:18:11;;;;;;;;;;;;;;;;;;6276817;22;19981;-82
2022/11/14 09:20:37;;;;;;;;;;;;;;;;;;6276965;22;20094;-82
2022/11/14 09:23:03;;;;;;;;;;;;;;;;;;6249375;22;19937;-81
2022/11/14 09:25:28;;;;;;;;;;;;;;;;;;6248959;22;19915;-84
2022/11/14 09:27:54;;;;;;;;;;;;;;;;;;6249027;22;19911;-82
2022/11/14 09:30:21;;;;;;;;;;;;;;;;;;6249114;22;20329;-83
2022/11/14 09:32:47;;;;;;;;;;;;;;;;;;6276499;22;19939;-83
2022/11/14 09:35:13;;;;;;;;;;;;;;;;;;6249327;22;19915;-83
2022/11/14 09:37:39;;;;;;;;;;;;;;;;;;6223573;22;19917;-83
2022/11/14 09:40:05;;;;;;;;;;;;;;;;;;6248930;22;19994;-83
2022/11/14 09:42:31;;;;;;;;;;;;;;;;;;6276036;22;19911;-84
2022/11/14 09:44:57;;;;;;;;;;;;;;;;;;6276376;22;19918;-83
2022/11/14 09:47:23;;;;;;;;;;;;;;;;;;6276154;22;19978;-84
2022/11/14 09:49:49;;;;;;;;;;;;;;;;;;6248898;22;19922;-85
2022/11/14 09:52:15;;;;;;;;;;;;;;;;;;6249003;22;20387;-82
2022/11/14 09:54:41;;;;;;;;;;;;;;;;;;6275919;22;19911;-83
2022/11/14 09:57:06;;;;;;;;;;;;;;;;;;6276334;22;19918;-83
2022/11/14 09:59:32;;;;;;;;;;;;;;;;;;6248848;22;20344;-83
2022/11/14 10:01:58;;;;;;;;;;;;;;;;;;6248647;22;19919;-82
2022/11/14 10:04:24;;;;;;;;;;;;;;;;;;6249148;22;19934;-83
2022/11/14 10:06:50;;;;;;;;;;;;;;;;;;6223499;22;19911;-82
2022/11/14 10:09:16;;;;;;;;;;;;;;;;;;6249040;22;19911;-83
2022/11/14 10:11:42;;;;;;;;;;;;;;;;;;6249199;22;19911;-82
2022/11/14 10:14:08;;;;;;;;;;;;;;;;;;6248706;22;19911;-83
2022/11/14 10:16:34;;;;;;;;;;;;;;;;;;6248830;22;19911;-84
2022/11/14 10:18:59;;;;;;;;;;;;;;;;;;6275926;22;19958;-81
2022/11/14 10:21:25;;;;;;;;;;;;;;;;;;6249238;22;19946;-83
2022/11/14 10:23:51;;;;;;;;;;;;;;;;;;6275978;22;20279;-83
2022/11/14 10:26:17;;;;;;;;;;;;;;;;;;6248999;22;19911;-83
2022/11/14 10:28:43;;;;;;;;;;;;;;;;;;6248818;22;19922;-83
2022/11/14 10:31:09;;;;;;;;;;;;;;;;;;6248997;22;19911;-83
2022/11/14 10:33:35;;;;;;;;;;;;;;;;;;6275785;22;20237;-82
2022/11/14 10:36:01;;;;;;;;;;;;;;;;;;6248931;22;19926;-82
2022/11/14 10:38:27;;;;;;;;;;;;;;;;;;6276038;22;19919;-81
2022/11/14 10:40:53;;;;;;;;;;;;;;;;;;6248765;22;19973;-82
2022/11/14 10:43:19;;;;;;;;;;;;;;;;;;6248747;22;19922;-83
2022/11/14 10:45:44;;;;;;;;;;;;;;;;;;6248969;22;19911;-82
2022/11/14 10:48:10;;;;;;;;;;;;;;;;;;6248668;22;19912;-82
2022/11/14 10:50:36;;;;;;;;;;;;;;;;;;6223451;22;19911;-82
2022/11/14 10:53:02;;;;;;;;;;;;;;;;;;6248413;22;19911;-82
2022/11/14 10:55:28;;;;;;;;;;;;;;;;;;6276013;22;20260;-82
2022/11/14 10:57:54;;;;;;;;;;;;;;;;;;6248753;22;19911;-82
2022/11/14 11:00:21;;;;;;;;;;;;;;;;;;6243460;23;19922;-82
2022/11/14 11:02:47;;;;;;;;;;;;;;;;;;6218710;23;19911;-83
2022/11/14 11:05:13;;;;;;;;;;;;;;;;;;6216461;23;19923;-83
2022/11/14 11:13:16;;;;;;;;;;;;;;;;;;6195149;23;20226;-83
2022/11/14 11:15:42;;;;;;;;;;;;;;;;;;6218292;23;19912;-84
2022/11/14 11:18:08;;;;;;;;;;;;;;;;;;6193142;23;20014;-84
2022/11/14 11:20:34;;;;;;;;;;;;;;;;;;6244867;23;20255;-84
2022/11/14 11:23:00;;;;;;;;;;;;;;;;;;6218737;23;19942;-83
2022/11/14 11:25:26;;;;;;;;;;;;;;;;;;6245356;23;19946;-82
2022/11/14 11:27:52;;;;;;;;;;;;;;;;;;6217982;23;20290;-82
2022/11/14 11:30:18;;;;;;;;;;;;;;;;;;6218349;23;19953;-82
2022/11/14 11:32:44;;;;;;;;;;;;;;;;;;6245508;23;19987;-82
2022/11/14 11:35:10;;;;;;;;;;;;;;;;;;6218105;23;19911;-83
2022/11/14 11:37:38;;;;;;;;;;;;;;;;;;6245293;22;19911;-83
2022/11/14 11:40:04;;;;;;;;;;;;;;;;;;6245312;23;19922;-84
2022/11/14 11:42:30;;;;;;;;;;;;;;;;;;6218074;23;20227;-83
2022/11/14 11:44:57;;;;;;;;;;;;;;;;;;6217972;23;19918;-82
2022/11/14 11:47:23;;;;;;;;;;;;;;;;;;6218709;23;19982;-83
2022/11/14 11:49:49;;;;;;;;;;;;;;;;;;6217842;23;19971;-82
2022/11/14 11:52:15;;;;;;;;;;;;;;;;;;6218216;23;19958;-83
2022/11/14 11:54:41;;;;;;;;;;;;;;;;;;6218051;23;19986;-83
2022/11/14 11:57:07;;;;;;;;;;;;;;;;;;6192780;23;20443;-83
2022/11/14 11:59:32;;;;;;;;;;;;;;;;;;6217858;23;19916;-86
2022/11/14 12:01:58;;;;;;;;;;;;;;;;;;6245389;22;19941;-83
2022/11/14 12:04:24;;;;;;;;;;;;;;;;;;6248149;22;19911;-83
2022/11/14 12:06:50;;;;;;;;;;;;;;;;;;6248274;22;19918;-83
2022/11/14 12:09:16;;;;;;;;;;;;;;;;;;6223064;22;19911;-83
2022/11/14 12:11:42;;;;;;;;;;;;;;;;;;6222602;22;19934;-82
2022/11/14 12:14:08;;;;;;;;;;;;;;;;;;6275693;22;20325;-83
2022/11/14 12:16:34;;;;;;;;;;;;;;;;;;6248863;22;19918;-83
2022/11/14 12:19:00;;;;;;;;;;;;;;;;;;6249984;22;20332;-82
2022/11/14 12:21:26;;;;;;;;;;;;;;;;;;6224810;22;19911;-82
2022/11/14 12:23:52;;;;;;;;;;;;;;;;;;6249936;22;19911;-83
2022/11/14 12:26:19;;;;;;;;;;;;;;;;;;6250061;22;20352;-83
2022/11/14 12:28:45;;;;;;;;;;;;;;;;;;6277252;22;19911;-83
2022/11/14 12:31:10;;;;;;;;;;;;;;;;;;6250363;22;19911;-83
2022/11/14 12:33:36;;;;;;;;;;;;;;;;;;6224589;22;19911;-83
2022/11/14 12:36:02;;;;;;;;;;;;;;;;;;6249929;22;19986;-83
2022/11/14 12:38:28;;;;;;;;;;;;;;;;;;6249910;22;19914;-83
2022/11/14 12:40:54;;;;;;;;;;;;;;;;;;6277293;22;20325;-83
2022/11/14 12:43:20;;;;;;;;;;;;;;;;;;6224822;22;19958;-82
2022/11/14 12:45:46;;;;;;;;;;;;;;;;;;6250375;22;19911;-83
2022/11/14 12:48:12;;;;;;;;;;;;;;;;;;6249936;22;20332;-83
2022/11/14 12:50:39;;;;;;;;;;;;;;;;;;6277310;22;19946;-82
2022/11/14 12:53:05;;;;;;;;;;;;;;;;;;6249840;22;19981;-84
2022/11/14 12:55:31;;;;;;;;;;;;;;;;;;6250075;22;20317;-83
2022/11/14 12:57:57;;;;;;;;;;;;;;;;;;6249565;22;19911;-82
2022/11/14 13:00:23;;;;;;;;;;;;;;;;;;6276524;22;20241;-83
2022/11/14 13:02:49;;;;;;;;;;;;;;;;;;6249538;22;19922;-83
2022/11/14 13:05:15;;;;;;;;;;;;;;;;;;6275481;22;19919;-82
2022/11/14 13:07:41;;;;;;;;;;;;;;;;;;6249283;22;19911;-82
2022/11/14 13:10:06;;;;;;;;;;;;;;;;;;6249716;22;19911;-83
2022/11/14 13:23:32;;;;;;;;;;;;;;;;;;6249493;22;19990;-82
2022/11/14 13:25:58;;;;;;;;;;;;;;;;;;6277009;22;19915;-82
2022/11/14 13:28:24;;;;;;;;;;;;;;;;;;6248895;22;20228;-82
2022/11/14 13:30:50;;;;;;;;;;;;;;;;;;6249365;22;19917;-83
2022/11/14 13:33:16;;;;;;;;;;;;;;;;;;6276586;22;19911;-83
2022/11/14 13:35:42;;;;;;;;;;;;;;;;;;6276746;22;19969;-83
2022/11/14 13:38:07;;;;;;;;;;;;;;;;;;6247015;22;19961;-83
2022/11/14 13:40:33;;;;;;;;;;;;;;;;;;6276184;22;19915;-85
2022/11/14 13:42:59;;;;;;;;;;;;;;;;;;6249137;22;19911;-83
2022/11/14 13:45:25;;;;;;;;;;;;;;;;;;6276433;22;19918;-83
2022/11/14 13:47:51;;;;;;;;;;;;;;;;;;6249368;22;20324;-83
2022/11/14 13:50:17;;;;;;;;;;;;;;;;;;6223887;22;19911;-86
2022/11/14 13:52:43;;;;;;;;;;;;;;;;;;6248761;22;19911;-83
2022/11/14 13:55:09;;;;;;;;;;;;;;;;;;6248984;22;19954;-83
2022/11/14 13:57:35;;;;;;;;;;;;;;;;;;6248498;22;19911;-84
2022/11/14 14:00:01;;;;;;;;;;;;;;;;;;6248572;22;20005;-83
2022/11/14 14:02:27;;;;;;;;;;;;;;;;;;6193579;23;20316;-84
2022/11/14 14:04:53;;;;;;;;;;;;;;;;;;6218430;23;19951;-83
2022/11/14 14:07:19;;;;;;;;;;;;;;;;;;6193060;23;19916;-84
2022/11/14 14:09:45;;;;;;;;;;;;;;;;;;6245625;23;19962;-83
2022/11/14 14:12:10;;;;;;;;;;;;;;;;;;6218299;23;19989;-84
2022/11/14 14:14:37;;;;;;;;;;;;;;;;;;6218779;23;19911;-83
2022/11/14 14:17:03;;;;;;;;;;;;;;;;;;6218714;23;19911;-84
2022/11/14 14:19:29;;;;;;;;;;;;;;;;;;6218285;23;19999;-86
2022/11/14 14:21:55;;;;;;;;;;;;;;;;;;6193146;23;20324;-83
2022/11/14 14:24:21;;;;;;;;;;;;;;;;;;6218381;23;19911;-84
2022/11/14 14:26:47;;;;;;;;;;;;;;;;;;6218066;23;19911;-84
2022/11/14 14:29:14;;;;;;;;;;;;;;;;;;6218229;23;19915;-83
2022/11/14 14:31:40;;;;;;;;;;;;;;;;;;6218240;23;19918;-84
2022/11/14 14:34:06;;;;;;;;;;;;;;;;;;6218031;23;19911;-84
2022/11/14 14:36:31;;;;;;;;;;;;;;;;;;6192890;23;19943;-85
2022/11/14 14:38:57;;;;;;;;;;;;;;;;;;6192830;23;20290;-85
2022/11/14 14:41:23;;;;;;;;;;;;;;;;;;6218190;23;19958;-85
2022/11/14 14:43:49;;;;;;;;;;;;;;;;;;6193056;23;19947;-85
2022/11/14 14:46:15;;;;;;;;;;;;;;;;;;6193152;23;19934;-86
2022/11/14 14:48:41;;;;;;;;;;;;;;;;;;6218225;23;19951;-85
2022/11/14 14:51:08;;;;;;;;;;;;;;;;;;6218025;23;20352;-84
2022/11/14 14:53:34;;;;;;;;;;;;;;;;;;6193089;23;19961;-85
2022/11/14 14:56:00;;;;;;;;;;;;;;;;;;6217987;23;19916;-84
2022/11/14 14:58:27;;;;;;;;;;;;;;;;;;6217740;23;19911;-84
2022/11/14 15:00:52;;;;;;;;;;;;;;;;;;6223789;23;20276;-85
2022/11/14 15:03:18;;;;;;;;;;;;;;;;;;6248722;22;19981;-86
2022/11/14 15:05:44;;;;;;;;;;;;;;;;;;6222620;22;20329;-86
2022/11/14 15:08:10;;;;;;;;;;;;;;;;;;6248272;22;19942;-85
2022/11/14 15:10:36;;;;;;;;;;;;;;;;;;6248335;22;19946;-85
2022/11/14 15:13:03;;;;;;;;;;;;;;;;;;6221281;22;19921;-85
2022/11/14 15:15:29;;;;;;;;;;;;;;;;;;6248117;22;20318;-85
2022/11/14 15:17:57;;;;;;;;;;;;;;;;;;6248233;22;19911;-85
2022/11/14 15:20:24;;;;;;;;;;;;;;;;;;6223151;22;19978;-85
2022/11/14 15:22:50;;;;;;;;;;;;;;;;;;6223431;22;19911;-84
2022/11/14 15:25:17;;;;;;;;;;;;;;;;;;6248228;22;20347;-84
2022/11/14 15:27:43;;;;;;;;;;;;;;;;;;6222833;22;19915;-85
2022/11/14 15:30:08;;;;;;;;;;;;;;;;;;6248153;22;20304;-84
2022/11/14 15:32:34;;;;;;;;;;;;;;;;;;6275045;22;19959;-85
2022/11/14 15:35:00;;;;;;;;;;;;;;;;;;6222823;22;19934;-84
2022/11/14 15:37:27;;;;;;;;;;;;;;;;;;6247685;22;20245;-85
2022/11/14 15:39:53;;;;;;;;;;;;;;;;;;6222832;22;19916;-84
2022/11/14 15:42:20;;;;;;;;;;;;;;;;;;6248136;22;20006;-83
2022/11/14 15:44:46;;;;;;;;;;;;;;;;;;6247927;22;19912;-85
2022/11/14 15:47:12;;;;;;;;;;;;;;;;;;6247782;22;19911;-84
2022/11/14 15:49:38;;;;;;;;;;;;;;;;;;6247852;22;19919;-85
2022/11/14 15:52:04;;;;;;;;;;;;;;;;;;6223719;22;19964;-85
2022/11/14 15:54:30;;;;;;;;;;;;;;;;;;6249824;22;19978;-85
2022/11/14 15:56:56;;;;;;;;;;;;;;;;;;6248728;22;19911;-84
2022/11/14 15:59:22;;;;;;;;;;;;;;;;;;6224321;22;19937;-83
2022/11/14 16:01:48;;;;;;;;;;;;;;;;;;6223293;22;19925;-84
2022/11/14 16:04:14;;;;;;;;;;;;;;;;;;6249282;22;20484;-84
2022/11/14 16:06:40;;;;;;;;;;;;;;;;;;6223783;22;19924;-85
2022/11/14 16:09:06;;;;;;;;;;;;;;;;;;6249574;22;19918;-84
2022/11/14 16:11:32;;;;;;;;;;;;;;;;;;6223367;22;19911;-85
2022/11/14 16:13:58;;;;;;;;;;;;;;;;;;6249803;22;20206;-85
2022/11/14 16:16:24;;;;;;;;;;;;;;;;;;6249940;22;19911;-84
2022/11/14 16:18:50;;;;;;;;;;;;;;;;;;6224541;22;20381;-85
2022/11/14 16:21:16;;;;;;;;;;;;;;;;;;6248243;22;19914;-85
2022/11/14 16:23:41;;;;;;;;;;;;;;;;;;6249600;22;19965;-85
2022/11/14 16:26:07;;;;;;;;;;;;;;;;;;6249397;22;20214;-85
2022/11/14 16:28:33;;;;;;;;;;;;;;;;;;6249672;22;19912;-85
2022/11/14 16:30:59;;;;;;;;;;;;;;;;;;6249738;22;20451;-86
2022/11/14 16:33:25;;;;;;;;;;;;;;;;;;6248783;22;20372;-84
2022/11/14 16:35:51;;;;;;;;;;;;;;;;;;6249496;22;19960;-84
2022/11/14 16:38:17;;;;;;;;;;;;;;;;;;6249428;22;19990;-84
2022/11/14 16:40:43;;;;;;;;;;;;;;;;;;6249367;22;19921;-87
2022/11/14 16:43:09;;;;;;;;;;;;;;;;;;6249467;22;19911;-86
2022/11/14 16:45:35;;;;;;;;;;;;;;;;;;6250550;22;19911;-85
2022/11/14 16:48:01;;;;;;;;;;;;;;;;;;6224059;22;19914;-86
2022/11/14 16:50:27;;;;;;;;;;;;;;;;;;6224486;22;19944;-88
2022/11/14 16:52:53;;;;;;;;;;;;;;;;;;6249781;22;19911;-87